Time;durP1;ratioP1;P1;durP2;ratioP2;P2;SDS_P1;SDS_P2;PMS_P1;PMS_P2;Temp;Humidity;BMP_temperature;BMP_pressure;BME280_temperature;BME280_humidity;BME280_pressure;Samples;Min_cycle;Max_cycle;Signal;HPM_P1;HPM_P2
2023/10/21 00:00:33;;;;;;;20.20;7.90;;;;;;;16.94;83.79;96462.88;224695;1286;22544;-72
2023/10/21 00:05:55;;;;;;;28.90;8.50;;;;;;;16.93;83.78;96477.24;224750;1286;22568;-72
2023/10/21 00:11:05;;;;;;;22.40;7.60;;;;;;;16.92;83.72;96485.67;224752;1284;22533;-72
2023/10/21 00:16:08;;;;;;;18.40;8.30;;;;;;;16.92;83.62;96486.65;224752;1289;22565;-72
2023/10/21 00:22:15;;;;;;;19.10;8.00;;;;;;;16.91;83.47;96498.84;224753;1285;22609;-76
2023/10/21 00:27:23;;;;;;;21.70;8.20;;;;;;;16.86;83.56;96501.39;224877;1288;22549;-72
2023/10/21 00:32:27;;;;;;;26.50;8.00;;;;;;;16.84;83.60;96508.51;224847;1285;22574;-72
2023/10/21 00:37:33;;;;;;;25.10;8.10;;;;;;;16.80;83.79;96516.60;224717;1289;22553;-72
2023/10/21 00:42:35;;;;;;;22.60;8.60;;;;;;;16.77;83.67;96508.60;224761;1282;22897;-73
2023/10/21 00:48:07;;;;;;;26.50;8.30;;;;;;;16.73;83.83;96501.60;224660;1289;25350;-72
2023/10/21 00:53:22;;;;;;;20.40;7.90;;;;;;;16.69;83.72;96508.19;224693;1286;22561;-72
2023/10/21 00:58:37;;;;;;;22.10;7.60;;;;;;;16.69;83.92;96520.57;224670;1286;25306;-72
2023/10/21 01:04:05;;;;;;;21.70;7.40;;;;;;;16.69;83.99;96523.17;224760;1286;22549;-73
2023/10/21 01:09:17;;;;;;;18.30;8.40;;;;;;;16.71;84.01;96536.33;224786;1288;23093;-72
2023/10/21 01:14:22;;;;;;;24.20;8.10;;;;;;;16.71;83.76;96536.28;224779;1286;22501;-72
2023/10/21 01:19:37;;;;;;;18.70;7.50;;;;;;;16.71;84.04;96541.50;224673;1286;22556;-73
2023/10/21 01:24:40;;;;;;;17.70;7.90;;;;;;;16.69;84.23;96549.41;224784;1286;22566;-73
2023/10/21 01:29:48;;;;;;;19.80;7.00;;;;;;;16.68;84.21;96556.94;224842;1287;22579;-72
2023/10/21 01:34:54;;;;;;;29.00;7.00;;;;;;;16.68;84.29;96566.50;224812;1287;22557;-72
2023/10/21 01:40:09;;;;;;;17.30;7.40;;;;;;;16.67;84.07;96565.69;224857;1288;22552;-73
2023/10/21 01:45:41;;;;;;;22.30;7.20;;;;;;;16.67;84.24;96573.76;220636;1287;5437793;-72
2023/10/21 01:51:06;;;;;;;24.80;7.50;;;;;;;16.65;84.15;96575.69;224852;1288;22649;-73
2023/10/21 01:56:12;;;;;;;19.50;7.40;;;;;;;16.63;84.38;96575.64;224712;1287;22561;-72
2023/10/21 02:01:17;;;;;;;22.90;7.60;;;;;;;16.59;84.33;96577.44;224645;1285;22554;-72
2023/10/21 02:06:24;;;;;;;18.20;7.70;;;;;;;16.55;84.53;96586.84;224790;1288;25332;-73
2023/10/21 02:11:59;;;;;;;17.90;8.20;;;;;;;16.48;84.36;96589.95;224763;1266;22553;-72
2023/10/21 02:17:08;;;;;;;20.30;9.30;;;;;;;16.41;84.57;96589.73;224769;1288;22564;-72
2023/10/21 02:22:11;;;;;;;18.40;9.80;;;;;;;16.36;84.59;96579.84;224803;1288;24322;-71
2023/10/21 02:27:14;;;;;;;25.00;9.00;;;;;;;16.30;84.59;96573.13;224867;1285;22553;-71
2023/10/21 02:32:18;;;;;;;23.90;10.40;;;;;;;16.21;84.57;96576.08;224735;1289;22536;-71
2023/10/21 02:37:51;;;;;;;21.40;10.20;;;;;;;16.12;84.58;96586.75;224888;1288;22540;-72
2023/10/21 02:42:59;;;;;;;20.70;10.40;;;;;;;16.06;84.98;96602.92;224806;1288;25050;-72
2023/10/21 02:48:07;;;;;;;20.90;10.10;;;;;;;16.04;85.26;96607.73;224774;1288;22624;-71
2023/10/21 02:53:16;;;;;;;21.90;10.70;;;;;;;16.04;85.13;96588.65;224696;1289;22557;-71
2023/10/21 02:58:34;;;;;;;21.40;9.00;;;;;;;16.04;85.46;96588.65;224800;1288;22846;-72
2023/10/21 03:03:41;;;;;;;24.20;10.10;;;;;;;16.01;85.29;96589.80;224765;1285;22895;-72
2023/10/21 03:09:09;;;;;;;23.80;10.90;;;;;;;15.97;85.21;96590.10;224707;1286;22559;-72
2023/10/21 03:14:40;;;;;;;;;;;;;;;;;;;;;
2023/10/21 03:20:23;;;;;;;25.20;11.10;;;;;;;15.93;85.53;96628.30;224836;1288;22539;-72
2023/10/21 03:25:30;;;;;;;;;;;;;;;15.94;85.47;96631.52;224802;1287;22583;-72
2023/10/21 03:30:37;;;;;;;20.50;10.00;;;;;;;15.93;85.52;96633.70;224788;1286;22567;-72
2023/10/21 03:35:53;;;;;;;23.70;9.10;;;;;;;15.92;85.61;96631.92;224819;1283;22552;-71
2023/10/21 03:41:07;;;;;;;28.60;10.20;;;;;;;15.96;85.75;96637.36;224783;1283;25341;-72
2023/10/21 03:46:14;;;;;;;29.10;11.90;;;;;;;15.99;85.70;96642.03;224778;1288;22576;-71
2023/10/21 03:51:39;;;;;;;25.30;12.70;;;;;;;15.97;85.72;96666.65;224680;1289;22669;-72
2023/10/21 03:57:27;;;;;;;27.30;12.80;;;;;;;15.93;85.52;96658.08;224362;1292;22605;-72
2023/10/21 04:02:52;;;;;;;23.40;13.00;;;;;;;15.85;85.43;96673.48;224365;1292;22696;-72
2023/10/21 04:07:58;;;;;;;28.50;13.20;;;;;;;15.80;85.62;96674.92;224623;1288;22689;-72
2023/10/21 04:13:01;;;;;;;28.50;13.00;;;;;;;15.76;85.76;96676.53;224367;1286;22705;-73
2023/10/21 04:18:05;;;;;;;29.00;13.00;;;;;;;15.71;85.88;96695.25;224481;1289;23294;-72
2023/10/21 04:23:40;;;;;;;;;;;;;;;;;;;;;
2023/10/21 04:28:52;;;;;;;25.40;11.80;;;;;;;15.62;86.23;96732.59;224883;1288;22498;-72
2023/10/21 04:34:16;;;;;;;22.70;10.10;;;;;;;15.58;86.29;96747.15;224792;1288;22553;-72
2023/10/21 04:39:19;;;;;;;22.00;10.80;;;;;;;15.52;86.33;96763.16;224932;1288;25330;-72
2023/10/21 04:44:27;;;;;;;22.90;11.20;;;;;;;15.45;86.33;96777.48;224752;1288;22577;-72
2023/10/21 04:49:43;;;;;;;22.80;10.30;;;;;;;15.37;86.63;96782.75;224816;1288;23655;-72
2023/10/21 04:54:46;;;;;;;23.50;10.40;;;;;;;15.30;86.55;96792.92;224806;1286;22557;-72
2023/10/21 05:00:06;;;;;;;26.60;10.00;;;;;;;15.28;86.82;96792.41;224779;1286;22570;-72
2023/10/21 05:05:12;;;;;;;25.20;10.60;;;;;;;15.27;87.10;96785.38;224800;1288;22552;-72
2023/10/21 05:10:31;;;;;;;23.80;11.00;;;;;;;15.28;86.95;96795.29;224812;1285;22547;-73
2023/10/21 05:15:36;;;;;;;22.60;10.40;;;;;;;15.30;87.25;96809.09;224772;1287;22653;-72
2023/10/21 05:20:47;;;;;;;23.30;10.00;;;;;;;15.32;87.30;96821.60;224900;1286;22570;-72
2023/10/21 05:25:50;;;;;;;20.80;9.50;;;;;;;15.37;87.43;96845.45;224864;1286;22561;-72
2023/10/21 05:31:05;;;;;;;17.30;8.20;;;;;;;15.43;87.62;96847.79;224818;1285;22536;-72
2023/10/21 05:36:08;;;;;;;25.50;9.10;;;;;;;15.53;87.54;96853.45;224784;1283;25300;-72
2023/10/21 05:41:11;;;;;;;25.70;7.70;;;;;;;15.62;87.50;96846.58;224861;1288;22567;-71
2023/10/21 05:46:14;;;;;;;20.40;7.80;;;;;;;15.68;87.55;96850.52;224809;1282;22540;-71
2023/10/21 05:51:26;;;;;;;19.80;8.00;;;;;;;15.74;87.56;96866.71;224744;1283;22612;-72
2023/10/21 05:56:30;;;;;;;21.30;7.80;;;;;;;15.78;87.42;96876.83;224770;1286;22557;-72
2023/10/21 06:01:44;;;;;;;23.80;8.00;;;;;;;15.84;87.42;96889.08;224709;1286;22622;-73
2023/10/21 06:06:49;;;;;;;18.10;8.10;;;;;;;15.91;87.34;96896.52;224716;1273;22549;-73
2023/10/21 06:12:12;;;;;;;;;;;;;;;;;;;;;
2023/10/21 06:17:15;;;;;;;20.50;8.30;;;;;;;16.04;87.39;96929.27;224784;1272;22555;-72
2023/10/21 06:22:22;;;;;;;23.80;9.00;;;;;;;16.10;87.41;96941.16;224812;1283;22585;-73
2023/10/21 06:27:41;;;;;;;21.50;8.60;;;;;;;16.16;87.39;96944.61;224828;1288;22553;-72
2023/10/21 06:32:44;;;;;;;19.90;9.30;;;;;;;16.23;87.32;96952.64;224795;1287;22567;-72
2023/10/21 06:38:07;;;;;;;20.80;8.70;;;;;;;16.31;87.33;96966.02;224756;1270;22549;-72
2023/10/21 06:43:24;;;;;;;19.40;8.50;;;;;;;16.39;87.14;96984.81;223926;1286;24317;-71
2023/10/21 06:48:40;;;;;;;21.90;9.50;;;;;;;16.48;87.15;96996.20;223992;1286;25421;-73
2023/10/21 06:53:45;;;;;;;29.80;16.80;;;;;;;16.56;86.88;97006.70;223807;1289;22597;-79
2023/10/21 06:59:03;;;;;;;33.20;24.60;;;;;;;16.63;86.73;97015.30;224083;1285;22560;-74
2023/10/21 07:04:27;;;;;;;;;;;;;;;;;;;;;
2023/10/21 07:09:33;;;;;;;24.00;9.70;;;;;;;16.76;86.61;97030.64;223989;1282;22611;-73
2023/10/21 07:14:38;;;;;;;21.30;9.50;;;;;;;16.86;86.50;97039.48;224255;1283;22687;-75
2023/10/21 07:20:14;;;;;;;20.90;8.20;;;;;;;16.97;86.34;97050.64;224065;1283;22550;-73
2023/10/21 07:25:18;;;;;;;21.10;9.20;;;;;;;17.10;86.28;97066.88;224040;1283;22593;-72
2023/10/21 07:30:27;;;;;;;27.30;11.70;;;;;;;17.18;86.03;97080.96;224348;1282;25344;-73
2023/10/21 07:35:30;;;;;;;23.60;10.80;;;;;;;17.21;85.63;97093.10;224279;1282;24277;-74
2023/10/21 07:40:57;;;;;;;19.90;9.30;;;;;;;17.21;85.75;97107.99;224326;1267;22553;-73
2023/10/21 07:46:13;;;;;;;16.70;8.50;;;;;;;17.19;85.69;97113.09;224323;1288;24264;-74
2023/10/21 07:51:22;;;;;;;24.80;8.30;;;;;;;17.07;85.55;97127.14;224533;1280;22579;-73
2023/10/21 07:56:30;;;;;;;20.30;8.40;;;;;;;16.89;85.71;97125.36;224554;1283;22550;-73
2023/10/21 08:01:36;;;;;;;20.50;8.70;;;;;;;16.77;86.28;97145.23;224535;1289;22591;-73
2023/10/21 08:06:44;;;;;;;23.60;8.40;;;;;;;16.73;86.58;97150.18;224508;1270;22549;-76
2023/10/21 08:12:03;;;;;;;18.40;9.30;;;;;;;16.73;86.82;97154.63;224482;1283;22592;-74
2023/10/21 08:17:19;;;;;;;19.00;9.50;;;;;;;16.81;87.08;97166.02;224546;1283;22760;-74
2023/10/21 08:22:22;;;;;;;17.80;8.00;;;;;;;16.95;87.42;97170.98;224312;1288;22561;-74
2023/10/21 08:27:28;;;;;;;15.30;6.90;;;;;;;17.05;87.29;97178.98;224236;1267;22593;-74
2023/10/21 08:32:37;;;;;;;15.70;7.50;;;;;;;17.20;87.41;97187.98;224300;1282;22564;-73
2023/10/21 08:37:40;;;;;;;16.30;8.00;;;;;;;17.43;87.61;97193.91;224402;1283;24386;-71
2023/10/21 08:42:42;;;;;;;15.40;7.40;;;;;;;17.66;87.57;97204.50;224451;1282;24340;-72
2023/10/21 08:48:11;;;;;;;19.10;7.40;;;;;;;17.88;87.21;97219.19;223973;1285;22583;-73
2023/10/21 08:53:24;;;;;;;18.20;9.20;;;;;;;18.08;87.04;97227.17;224066;1285;23283;-74
2023/10/21 08:58:29;;;;;;;16.70;7.40;;;;;;;18.31;86.82;97222.30;223994;1270;22681;-75
2023/10/21 09:03:34;;;;;;;16.80;7.00;;;;;;;18.52;86.50;97233.05;224021;1286;22580;-75
2023/10/21 09:08:42;;;;;;;14.30;6.10;;;;;;;18.72;86.32;97246.38;224140;1276;22608;-73
2023/10/21 09:13:46;;;;;;;12.20;5.60;;;;;;;18.88;85.74;97252.32;224114;1281;24284;-75
2023/10/21 09:19:26;;;;;;;13.40;6.00;;;;;;;18.97;85.27;97255.47;224118;1281;22558;-74
2023/10/21 09:24:40;;;;;;;17.80;5.90;;;;;;;19.11;84.83;97269.12;224282;1281;22607;-75
2023/10/21 09:29:44;;;;;;;14.60;5.40;;;;;;;19.29;84.67;97280.44;224377;1281;22552;-76
2023/10/21 09:34:47;;;;;;;12.80;5.20;;;;;;;19.49;84.14;97282.64;224631;1282;22578;-76
2023/10/21 09:40:00;;;;;;;13.60;4.90;;;;;;;19.73;83.74;97285.74;224581;1283;24228;-74
2023/10/21 09:45:04;;;;;;;11.40;4.90;;;;;;;19.95;82.23;97288.79;224524;1269;23084;-75
2023/10/21 09:50:10;;;;;;;13.30;4.30;;;;;;;20.00;81.62;97295.17;224475;1267;22581;-73
2023/10/21 09:55:14;;;;;;;11.70;4.20;;;;;;;20.02;81.45;97300.04;224517;1283;22702;-74
2023/10/21 10:00:19;;;;;;;8.70;4.10;;;;;;;20.08;81.11;97309.50;224619;1283;22585;-74
2023/10/21 10:05:27;;;;;;;12.40;4.50;;;;;;;20.27;80.82;97305.48;224332;1282;25011;-76
2023/10/21 10:10:38;;;;;;;9.00;3.80;;;;;;;20.46;80.80;97297.17;224319;1282;22688;-74
2023/10/21 10:15:42;;;;;;;12.50;4.50;;;;;;;20.62;80.19;97315.96;224286;1281;22597;-73
2023/10/21 10:20:52;;;;;;;7.80;3.60;;;;;;;20.76;80.08;97317.11;224304;1283;22504;-73
2023/10/21 10:25:57;;;;;;;8.10;3.40;;;;;;;20.90;79.17;97315.86;224573;1283;22586;-73
2023/10/21 10:31:01;;;;;;;9.10;3.30;;;;;;;20.93;77.87;97319.08;224597;1283;22559;-72
2023/10/21 10:36:06;;;;;;;12.00;3.50;;;;;;;20.88;77.76;97331.88;224627;1269;22557;-73
2023/10/21 10:41:15;;;;;;;11.00;4.80;;;;;;;20.84;77.69;97331.84;224419;1289;22565;-73
2023/10/21 10:46:27;;;;;;;8.30;3.30;;;;;;;20.92;77.73;97331.51;224321;1283;23294;-74
2023/10/21 10:51:46;;;;;;;8.90;3.90;;;;;;;21.02;77.25;97330.40;224355;1270;22543;-74
2023/10/21 10:56:49;;;;;;;9.60;3.40;;;;;;;21.11;76.74;97333.85;224232;1282;22543;-73
2023/10/21 11:02:08;;;;;;;12.10;3.50;;;;;;;21.23;76.48;97337.10;224153;1286;22555;-73
2023/10/21 11:07:11;;;;;;;7.30;3.20;;;;;;;21.38;76.45;97337.95;224296;1283;22567;-75
2023/10/21 11:12:45;;;;;;;10.40;2.90;;;;;;;21.50;76.03;97346.20;224416;1286;23785;-73
2023/10/21 11:17:48;;;;;;;7.60;3.30;;;;;;;21.59;75.30;97354.16;224805;1285;22617;-72
2023/10/21 11:23:12;;;;;;;14.60;3.90;;;;;;;21.67;75.21;97366.98;224717;1283;22540;-73
2023/10/21 11:28:15;;;;;;;8.50;3.30;;;;;;;21.68;74.70;97376.64;224707;1289;24243;-73
2023/10/21 11:33:32;;;;;;;8.10;3.60;;;;;;;21.71;74.21;97378.59;224784;1289;22560;-72
2023/10/21 11:38:39;;;;;;;9.40;3.50;;;;;;;21.81;74.40;97385.96;224786;1289;22586;-73
2023/10/21 11:43:46;;;;;;;8.90;3.30;;;;;;;21.93;74.31;97398.41;224843;1286;22552;-75
2023/10/21 11:48:57;;;;;;;7.90;3.50;;;;;;;21.86;73.24;97402.16;224815;1288;22694;-73
2023/10/21 11:54:00;;;;;;;10.10;3.30;;;;;;;21.70;73.54;97412.36;224785;1286;22583;-73
2023/10/21 12:00:37;;;;;;;7.40;3.10;;;;;;;21.64;73.65;97426.83;224842;1283;22564;-74
2023/10/21 12:36:32;;;;;;;13.70;8.60;;;;;;;22.07;71.63;97453.33;224773;1285;22551;-74
2023/10/21 12:41:38;;;;;;;8.40;3.60;;;;;;;22.13;71.66;97457.37;224808;1289;22654;-74
2023/10/21 12:47:04;;;;;;;7.00;3.40;;;;;;;22.15;71.29;97466.48;224765;1289;22551;-74
2023/10/21 12:52:39;;;;;;;8.40;3.30;;;;;;;22.14;71.28;97479.78;224769;1286;22552;-73
2023/10/21 12:57:44;;;;;;;8.40;3.30;;;;;;;22.13;70.85;97486.89;224581;1291;22621;-73
2023/10/21 13:03:10;;;;;;;11.10;8.80;;;;;;;22.16;70.73;97490.99;224586;1284;24264;-74
2023/10/21 13:08:11;;;;;;;7.90;3.30;;;;;;;22.02;70.36;97494.61;224670;1289;23517;-75
2023/10/21 13:13:21;;;;;;;6.20;2.90;;;;;;;21.84;70.48;97509.70;224615;1289;22552;-72
2023/10/21 13:18:33;;;;;;;11.30;3.50;;;;;;;21.80;70.60;97512.85;224657;1270;22553;-74
2023/10/21 13:23:36;;;;;;;8.90;6.00;;;;;;;21.80;70.88;97517.63;224708;1288;22556;-73
2023/10/21 13:28:45;;;;;;;10.30;3.90;;;;;;;21.72;70.60;97518.71;224686;1289;23449;-74
2023/10/21 13:34:06;;;;;;;8.20;3.40;;;;;;;21.63;71.02;97524.32;224824;1286;22552;-74
2023/10/21 13:39:37;;;;;;;11.70;3.60;;;;;;;21.60;71.16;97532.33;224809;1289;22562;-74
2023/10/21 13:44:52;;;;;;;7.80;4.10;;;;;;;21.60;71.28;97536.14;224507;1289;372850;-74
2023/10/21 13:49:57;;;;;;;9.50;3.60;;;;;;;21.62;71.14;97540.36;224839;1289;22570;-74
2023/10/21 13:55:17;;;;;;;8.00;3.10;;;;;;;21.61;71.04;97537.26;224829;1279;25277;-74
2023/10/21 14:00:34;;;;;;;7.30;3.10;;;;;;;21.59;70.78;97532.81;224837;1283;22537;-74
2023/10/21 14:05:59;;;;;;;11.10;4.60;;;;;;;21.54;70.64;97535.19;224787;1289;22549;-74
2023/10/21 14:11:10;;;;;;;8.50;4.70;;;;;;;21.48;70.89;97547.65;224736;1286;22559;-74
2023/10/21 14:16:23;;;;;;;;;;;;;;;;;;;;;
2023/10/21 14:22:16;;;;;;;9.30;3.50;;;;;;;21.38;71.38;97535.29;224834;1289;22563;-75
2023/10/21 14:27:31;;;;;;;8.30;3.40;;;;;;;21.29;71.49;97528.85;224792;1271;22551;-75
2023/10/21 14:33:05;;;;;;;;;;;;;;;;;;;;;
2023/10/21 14:38:36;;;;;;;6.80;3.40;;;;;;;21.08;71.78;97527.78;224820;1286;22545;-76
2023/10/21 14:43:39;;;;;;;7.80;3.60;;;;;;;20.95;71.89;97533.40;224787;1286;22556;-74
2023/10/21 14:48:57;;;;;;;6.80;3.10;;;;;;;20.82;71.75;97540.90;224836;1286;22556;-74
2023/10/21 14:54:08;;;;;;;7.60;3.60;;;;;;;20.69;72.21;97547.80;224785;1286;22590;-74
2023/10/21 14:59:13;;;;;;;6.30;3.90;;;;;;;20.56;72.51;97553.45;224801;1286;22561;-75
2023/10/21 15:04:18;;;;;;;9.20;4.40;;;;;;;20.40;72.80;97559.70;224793;1289;22555;-75
2023/10/21 15:09:23;;;;;;;9.90;5.40;;;;;;;20.24;73.17;97560.08;224872;1289;25406;-74
2023/10/21 15:14:28;;;;;;;8.90;5.20;;;;;;;20.05;73.36;97563.80;224846;1283;22564;-75
2023/10/21 15:19:57;;;;;;;11.40;5.90;;;;;;;19.85;73.78;97565.75;224840;1283;22576;-75
2023/10/21 15:25:07;;;;;;;14.80;6.90;;;;;;;19.64;74.06;97573.91;224854;1285;22546;-75
2023/10/21 15:30:28;;;;;;;15.30;7.40;;;;;;;19.43;74.44;97577.46;224778;1289;22555;-75
2023/10/21 15:35:43;;;;;;;16.80;10.10;;;;;;;19.20;74.84;97589.85;224860;1286;25962;-75
2023/10/21 15:40:56;;;;;;;21.10;10.40;;;;;;;18.99;75.18;97594.95;224792;1283;22595;-74
2023/10/21 15:46:05;;;;;;;21.00;10.80;;;;;;;18.76;75.44;97597.70;224777;1286;22600;-74
2023/10/21 15:51:10;;;;;;;16.20;9.90;;;;;;;18.56;75.70;97604.73;224746;1284;22562;-74
2023/10/21 15:56:21;;;;;;;17.90;10.00;;;;;;;18.38;75.94;97610.69;224755;1286;22540;-74
2023/10/21 16:01:41;;;;;;;19.50;9.70;;;;;;;18.18;76.22;97622.65;224822;1279;24272;-74
2023/10/21 16:07:25;;;;;;;15.90;8.80;;;;;;;18.03;76.45;97631.13;224802;1289;23309;-74
2023/10/21 16:12:48;;;;;;;15.40;8.50;;;;;;;17.89;76.83;97638.04;224897;1289;22596;-75
2023/10/21 16:18:22;;;;;;;14.50;8.50;;;;;;;17.74;77.20;97645.52;224857;1283;22563;-75
2023/10/21 16:23:47;;;;;;;19.00;10.60;;;;;;;17.56;77.49;97659.73;224877;1286;22571;-74
2023/10/21 16:28:52;;;;;;;19.00;11.40;;;;;;;17.39;77.72;97667.18;224834;1289;22551;-74
2023/10/21 16:34:08;;;;;;;16.70;10.30;;;;;;;17.25;77.92;97674.78;224839;1286;22606;-74
2023/10/21 16:39:36;;;;;;;;;;;;;;;;;;;;;
2023/10/21 16:44:58;;;;;;;26.00;16.70;;;;;;;16.93;78.52;97662.35;224837;1289;22565;-75
2023/10/21 16:50:27;;;;;;;33.50;22.20;;;;;;;16.80;78.70;97663.31;224845;1286;24793;-74
2023/10/21 16:55:47;;;;;;;35.50;24.60;;;;;;;16.67;79.08;97665.91;224867;1279;22622;-75
2023/10/21 17:00:50;;;;;;;38.10;26.10;;;;;;;16.54;79.57;97667.88;224849;1277;22564;-74
2023/10/21 17:06:31;;;;;;;38.00;24.70;;;;;;;16.42;79.60;97668.56;224726;1289;24251;-75
2023/10/21 17:11:57;;;;;;;30.80;18.50;;;;;;;16.26;80.11;97679.83;224870;1289;22556;-74
2023/10/21 17:17:00;;;;;;;25.80;13.30;;;;;;;16.15;80.32;97686.73;224740;1289;22554;-73
2023/10/21 17:22:43;;;;;;;22.10;13.50;;;;;;;16.04;80.32;97699.63;224817;1287;22549;-75
2023/10/21 17:27:58;;;;;;;18.40;11.10;;;;;;;15.92;80.51;97697.88;224849;1289;22556;-74
2023/10/21 17:33:04;;;;;;;17.60;11.50;;;;;;;15.84;80.80;97700.66;224828;1286;22579;-73
2023/10/21 17:38:38;;;;;;;22.90;15.20;;;;;;;15.79;81.08;97693.88;224812;1289;23812;-73
2023/10/21 17:44:02;;;;;;;25.20;17.10;;;;;;;15.75;81.39;97698.20;224824;1276;22592;-74
2023/10/21 17:49:43;;;;;;;26.60;19.20;;;;;;;15.73;81.56;97694.77;224827;1289;22556;-76
2023/10/21 17:55:00;;;;;;;35.30;24.50;;;;;;;15.74;81.91;97693.87;224815;1284;22552;-74
2023/10/21 18:00:24;;;;;;;37.80;27.60;;;;;;;15.76;81.99;97698.70;224883;1289;22549;-75
2023/10/21 18:05:39;;;;;;;38.50;26.30;;;;;;;15.78;82.18;97703.36;224889;1286;22556;-74
2023/10/21 18:11:14;;;;;;;;;;;;;;;;;;;;;
2023/10/21 18:16:17;;;;;;;43.20;30.30;;;;;;;15.83;82.56;97725.55;224911;1287;23486;-74
2023/10/21 18:21:48;;;;;;;;;;;;;;;;;;;;;
2023/10/21 18:26:51;;;;;;;42.10;29.90;;;;;;;15.88;82.77;97737.46;224876;1289;22569;-74
2023/10/21 18:32:01;;;;;;;45.60;33.00;;;;;;;15.89;82.69;97743.16;224695;1289;25435;-75
2023/10/21 18:37:07;;;;;;;51.20;36.90;;;;;;;15.91;82.72;97750.87;224879;1289;22708;-74
2023/10/21 18:42:16;;;;;;;57.00;42.80;;;;;;;15.89;82.65;97750.05;224683;1286;22670;-73
2023/10/21 18:47:28;;;;;;;64.80;48.10;;;;;;;15.85;82.88;97751.95;224801;1285;24701;-74
2023/10/21 18:52:47;;;;;;;46.80;37.20;;;;;;;15.78;83.03;97758.23;224852;1284;22555;-74
2023/10/21 18:57:59;;;;;;;51.20;37.70;;;;;;;15.71;83.19;97759.41;224849;1289;22566;-74
2023/10/21 19:03:04;;;;;;;54.90;39.30;;;;;;;15.65;83.46;97761.41;224822;1289;22614;-74
2023/10/21 19:08:08;;;;;;;52.20;37.40;;;;;;;15.58;83.45;97757.59;224839;1289;22556;-74
2023/10/21 19:13:17;;;;;;;53.40;38.50;;;;;;;15.47;83.74;97755.36;224777;1286;24266;-74
2023/10/21 19:18:24;;;;;;;47.90;35.30;;;;;;;15.39;83.87;97754.40;224861;1285;22592;-74
2023/10/21 19:23:41;;;;;;;42.20;32.10;;;;;;;15.31;83.93;97753.67;224838;1289;22624;-73
2023/10/21 19:29:00;;;;;;;42.00;31.00;;;;;;;15.25;84.11;97747.96;224824;1289;24241;-75
2023/10/21 19:34:09;;;;;;;49.10;35.90;;;;;;;15.25;84.56;97751.53;224771;1285;22556;-74
2023/10/21 19:39:23;;;;;;;;;;;;;;;;;;;;;
2023/10/21 19:44:45;;;;;;;51.00;38.00;;;;;;;15.21;84.41;97754.72;224777;1289;23328;-74
2023/10/21 19:49:51;;;;;;;57.00;39.80;;;;;;;15.20;84.78;97741.08;224812;1289;24237;-74
2023/10/21 19:55:01;;;;;;;56.40;38.90;;;;;;;15.14;84.70;97732.36;224840;1287;22560;-75
2023/10/21 20:00:12;;;;;;;51.90;37.40;;;;;;;15.08;84.57;97730.41;224856;1286;24250;-75
2023/10/21 20:05:21;;;;;;;48.20;33.70;;;;;;;14.99;84.70;97728.29;224840;1289;22571;-74
2023/10/21 20:10:38;;;;;;;44.80;31.60;;;;;;;14.92;84.92;97735.52;224795;1289;22567;-74
2023/10/21 20:15:45;;;;;;;40.30;29.30;;;;;;;14.86;85.02;97730.89;224788;1286;22552;-75
2023/10/21 20:21:05;;;;;;;37.60;28.10;;;;;;;14.83;85.46;97723.24;224825;1285;22512;-75
2023/10/21 20:26:14;;;;;;;36.90;27.20;;;;;;;14.78;85.54;97717.42;224820;1286;23676;-75
2023/10/21 20:31:20;;;;;;;35.70;26.10;;;;;;;14.78;85.60;97719.60;224678;1290;22550;-73
2023/10/21 20:36:28;;;;;;;38.60;26.40;;;;;;;14.75;85.55;97718.21;224767;1289;22579;-75
2023/10/21 20:41:32;;;;;;;40.90;27.70;;;;;;;14.75;85.78;97714.18;224721;1289;22582;-75
2023/10/21 20:46:44;;;;;;;40.50;27.30;;;;;;;14.77;85.99;97717.03;224778;1289;22555;-75
2023/10/21 20:51:57;;;;;;;40.20;28.20;;;;;;;14.83;86.12;97714.10;224854;1286;22580;-73
2023/10/21 20:57:10;;;;;;;38.20;26.60;;;;;;;14.90;86.29;97707.56;224814;1286;22549;-73
2023/10/21 21:02:13;;;;;;;42.60;30.20;;;;;;;14.92;86.15;97703.66;224755;1289;22549;-75
2023/10/21 21:07:34;;;;;;;38.40;27.80;;;;;;;14.92;86.13;97702.00;224800;1289;24363;-75
2023/10/21 21:12:54;;;;;;;39.40;29.40;;;;;;;14.91;86.20;97703.00;224866;1289;22548;-73
2023/10/21 21:17:57;;;;;;;41.00;30.20;;;;;;;14.91;86.22;97697.59;224835;1285;22552;-76
2023/10/21 21:23:03;;;;;;;41.30;29.00;;;;;;;14.91;86.27;97692.11;224849;1289;22634;-76
2023/10/21 21:28:06;;;;;;;41.50;28.30;;;;;;;14.93;86.67;97688.79;224876;1288;22586;-75
2023/10/21 21:33:12;;;;;;;39.10;27.80;;;;;;;14.98;86.71;97689.17;224920;1289;22558;-74
2023/10/21 21:38:21;;;;;;;36.80;27.40;;;;;;;15.02;86.91;97687.16;224781;1289;22556;-77
2023/10/21 21:43:29;;;;;;;40.30;29.60;;;;;;;15.05;86.66;97682.31;224773;1283;22542;-76
2023/10/21 21:48:32;;;;;;;36.80;27.30;;;;;;;15.06;86.70;97680.77;224801;1289;22552;-74
2023/10/21 21:53:37;;;;;;;37.50;28.80;;;;;;;15.05;86.47;97687.42;224788;1289;22648;-75
2023/10/21 21:58:58;;;;;;;40.10;28.80;;;;;;;15.06;86.73;97693.71;224780;1286;22591;-74
2023/10/21 22:04:04;;;;;;;41.10;31.10;;;;;;;15.10;87.10;97689.48;224894;1286;22566;-74
2023/10/21 22:09:10;;;;;;;39.90;26.10;;;;;;;15.19;87.45;97684.64;224825;1286;22572;-75
2023/10/21 22:14:24;;;;;;;27.80;21.00;;;;;;;15.26;87.35;97689.16;224765;1289;22589;-74
2023/10/21 22:19:40;;;;;;;24.90;18.80;;;;;;;15.30;87.57;97699.17;224879;1289;22624;-74
2023/10/21 22:24:43;;;;;;;21.70;15.80;;;;;;;15.33;87.53;97705.54;224880;1289;22543;-74
2023/10/21 22:29:55;;;;;;;18.70;12.50;;;;;;;15.33;87.50;97707.37;224831;1289;25430;-74
2023/10/21 22:35:08;;;;;;;18.10;11.80;;;;;;;15.35;87.69;97711.27;224837;1289;22550;-75
2023/10/21 22:40:25;;;;;;;13.40;9.10;;;;;;;15.36;87.59;97716.19;224778;1289;22571;-75
2023/10/21 22:45:37;;;;;;;13.00;7.90;;;;;;;15.41;88.06;97721.43;224811;1286;22555;-75
2023/10/21 22:50:43;;;;;;;11.00;7.70;;;;;;;15.46;87.85;97728.13;224799;1289;22562;-75
2023/10/21 22:55:59;;;;;;;11.30;7.40;;;;;;;15.45;87.82;97729.94;224832;1289;22589;-75
2023/10/21 23:01:18;;;;;;;10.00;7.50;;;;;;;15.43;87.81;97728.75;224850;1289;22567;-75
2023/10/21 23:06:37;;;;;;;12.60;8.10;;;;;;;15.40;88.10;97734.79;224858;1267;22550;-76
2023/10/21 23:11:43;;;;;;;11.10;7.30;;;;;;;15.37;88.06;97733.77;224844;1285;22555;-75
2023/10/21 23:17:13;;;;;;;;;;;;;;;;;;;;;
2023/10/21 23:22:32;;;;;;;13.30;9.10;;;;;;;15.31;88.34;97738.05;224855;1286;22556;-75
2023/10/21 23:27:39;;;;;;;13.60;9.10;;;;;;;15.29;88.52;97735.98;224793;1289;22543;-75
2023/10/21 23:33:43;;;;;;;;;;;;;;;;;;;;;
2023/10/21 23:39:05;;;;;;;14.00;8.30;;;;;;;15.21;88.62;97735.94;224858;1289;23007;-75
2023/10/21 23:44:31;;;;;;;15.80;11.90;;;;;;;15.20;88.95;97732.23;224871;1289;22564;-74
2023/10/21 23:49:37;;;;;;;16.90;12.50;;;;;;;15.18;88.98;97729.29;224885;1287;25312;-74
2023/10/21 23:55:20;;;;;;;15.10;10.30;;;;;;;15.16;88.83;97729.98;224264;1293;22571;-75
